createdAt,value
2022-12-16T00:02:25.263Z,122.03
2022-12-16T00:04:52.010Z,129.68
2022-12-16T00:07:18.634Z,104.72
2022-12-16T00:09:45.265Z,121.93
2022-12-16T00:12:11.948Z,117.80
2022-12-16T00:14:38.541Z,119.95
2022-12-16T00:17:05.339Z,114.78
2022-12-16T00:19:32.055Z,109.72
2022-12-16T00:21:58.696Z,121.00
2022-12-16T00:24:25.341Z,116.35
2022-12-16T00:26:52.345Z,105.70
2022-12-16T00:29:19.052Z,116.43
2022-12-16T00:31:47.989Z,118.43
2022-12-16T00:34:16.345Z,112.07
2022-12-16T00:36:43.886Z,108.63
2022-12-16T00:39:11.081Z,123.00
2022-12-16T00:41:38.025Z,127.68
2022-12-16T00:44:05.270Z,112.43
2022-12-16T00:46:31.973Z,111.25
2022-12-16T00:48:58.608Z,123.53
2022-12-16T00:51:25.697Z,115.53
2022-12-16T00:53:52.364Z,111.05
2022-12-16T00:56:19.352Z,121.22
2022-12-16T00:58:46.210Z,111.22
2022-12-16T01:01:13.106Z,108.00
2022-12-16T01:03:40.209Z,111.07
2022-12-16T01:06:17.671Z,112.53
2022-12-16T01:08:50.590Z,105.75
2022-12-16T01:11:19.574Z,105.57
2022-12-16T01:13:46.889Z,122.50
2022-12-16T01:16:14.283Z,104.55
2022-12-16T01:18:40.934Z,115.80
2022-12-16T01:21:11.158Z,120.35
2022-12-16T01:23:37.799Z,113.60
2022-12-16T01:26:04.490Z,108.85
2022-12-16T01:28:31.251Z,122.63
2022-12-16T01:31:02.111Z,107.80
2022-12-16T01:33:30.805Z,114.13
2022-12-16T01:36:06.968Z,117.00
2022-12-16T01:38:34.826Z,117.38
2022-12-16T01:41:02.077Z,108.13
2022-12-16T01:43:33.183Z,112.32
2022-12-16T01:48:45.751Z,105.30
2022-12-16T01:51:26.472Z,111.03
2022-12-16T01:53:57.829Z,105.85
2022-12-16T01:58:55.227Z,96.03
2022-12-16T02:01:22.675Z,102.60
2022-12-16T02:03:51.528Z,108.78
2022-12-16T02:06:19.024Z,106.95
2022-12-16T02:08:45.734Z,107.00
2022-12-16T02:11:26.955Z,102.32
2022-12-16T02:14:28.731Z,95.45
2022-12-16T02:17:14.687Z,110.00
2022-12-16T02:20:10.188Z,114.90
2022-12-16T02:22:58.744Z,101.00
2022-12-16T02:25:56.184Z,109.10
2022-12-16T02:28:40.383Z,98.45
2022-12-16T02:31:53.738Z,100.20
2022-12-16T02:34:49.399Z,110.75
2022-12-16T02:37:47.991Z,101.53
2022-12-16T02:40:24.394Z,98.28
2022-12-16T02:43:00.284Z,108.28
2022-12-16T02:45:30.985Z,107.72
2022-12-16T02:47:57.842Z,104.13
2022-12-16T02:50:27.191Z,104.30
2022-12-16T02:52:55.728Z,96.32
2022-12-16T02:55:29.304Z,105.22
2022-12-16T02:58:18.876Z,101.22
2022-12-16T03:01:17.773Z,105.22
2022-12-16T03:03:53.416Z,95.85
2022-12-16T03:06:22.471Z,95.55
2022-12-16T03:08:53.809Z,95.60
2022-12-16T03:13:51.810Z,92.72
2022-12-16T03:18:52.644Z,95.85
2022-12-16T03:21:25.228Z,101.45
2022-12-16T03:24:00.255Z,96.97
2022-12-16T03:26:56.463Z,94.20
2022-12-16T03:29:50.578Z,91.82
2022-12-16T03:32:30.728Z,96.82
2022-12-16T03:35:02.291Z,92.88
2022-12-16T03:37:33.747Z,92.00
2022-12-16T03:40:05.776Z,93.80
2022-12-16T03:42:32.929Z,88.97
2022-12-16T03:44:59.899Z,79.43
2022-12-16T03:47:28.933Z,94.05
2022-12-16T03:49:55.742Z,88.47
2022-12-16T03:52:22.389Z,92.63
2022-12-16T03:54:49.019Z,81.78
2022-12-16T03:57:15.969Z,80.38
2022-12-16T03:59:43.328Z,87.95
2022-12-16T04:02:10.169Z,86.88
2022-12-16T04:04:37.156Z,91.78
2022-12-16T04:07:24.253Z,89.47
2022-12-16T04:09:52.207Z,87.07
2022-12-16T04:12:38.512Z,88.55
2022-12-16T04:15:24.816Z,79.25
2022-12-16T04:18:09.981Z,87.72
2022-12-16T04:20:59.197Z,93.85
2022-12-16T04:23:46.199Z,88.22
2022-12-16T04:26:12.951Z,85.40
2022-12-16T04:28:39.739Z,85.88
2022-12-16T04:31:07.028Z,90.97
2022-12-16T04:33:52.423Z,87.25
2022-12-16T04:36:37.520Z,84.05
2022-12-16T04:39:22.958Z,91.47
2022-12-16T04:42:11.718Z,83.32
2022-12-16T04:44:57.748Z,84.28
2022-12-16T04:47:43.425Z,82.50
2022-12-16T04:50:29.132Z,92.25
2022-12-16T04:53:14.398Z,83.07
2022-12-16T04:56:04.064Z,82.18
2022-12-16T04:58:49.945Z,88.68
2022-12-16T05:01:35.467Z,93.10
2022-12-16T05:04:20.725Z,83.07
2022-12-16T05:07:06.193Z,90.55
2022-12-16T05:09:51.680Z,93.55
2022-12-16T05:12:37.042Z,93.22
2022-12-16T05:15:22.264Z,88.45
2022-12-16T05:18:07.466Z,84.88
2022-12-16T05:20:52.762Z,80.82
2022-12-16T05:23:38.308Z,84.03
2022-12-16T05:26:23.417Z,90.60
2022-12-16T05:29:08.614Z,82.43
2022-12-16T05:31:53.885Z,77.90
2022-12-16T05:34:39.365Z,87.75
2022-12-16T05:37:24.961Z,98.95
2022-12-16T05:40:10.072Z,86.50
2022-12-16T05:42:55.261Z,82.13
2022-12-16T05:45:40.455Z,85.72
2022-12-16T05:48:25.793Z,91.85
2022-12-16T05:51:12.925Z,95.78
2022-12-16T05:53:58.299Z,97.47
2022-12-16T05:56:43.753Z,101.90
2022-12-16T05:59:29.055Z,101.55
2022-12-16T06:02:14.508Z,92.72
2022-12-16T06:04:59.751Z,99.38
2022-12-16T06:07:45.098Z,89.75
2022-12-16T06:10:30.477Z,89.32
2022-12-16T06:13:15.808Z,103.78
2022-12-16T06:16:06.689Z,91.38
2022-12-16T06:18:53.675Z,95.38
2022-12-16T06:21:38.922Z,90.72
2022-12-16T06:24:24.432Z,100.85
2022-12-16T06:27:09.961Z,100.60
2022-12-16T06:29:55.116Z,124.30
2022-12-16T06:32:40.179Z,108.30
2022-12-16T06:35:25.357Z,92.55
2022-12-16T06:38:10.662Z,99.82
2022-12-16T06:40:56.079Z,94.88
2022-12-16T06:43:41.322Z,96.57
2022-12-16T06:46:26.863Z,90.78
2022-12-16T06:49:12.231Z,86.97
2022-12-16T06:51:57.690Z,81.45
2022-12-16T06:54:43.066Z,82.90
2022-12-16T06:57:28.271Z,84.25
2022-12-16T07:00:13.728Z,86.32
2022-12-16T07:02:58.943Z,80.75
2022-12-16T07:05:44.229Z,76.90
2022-12-16T07:08:29.516Z,76.25
2022-12-16T07:11:17.092Z,83.45
2022-12-16T07:14:03.016Z,76.45
2022-12-16T07:16:48.292Z,86.78
2022-12-16T07:19:34.022Z,84.18
2022-12-16T07:22:19.133Z,81.32
2022-12-16T07:25:04.649Z,71.25
2022-12-16T07:27:49.998Z,76.18
2022-12-16T07:30:35.418Z,78.80
2022-12-16T07:33:21.073Z,74.53
2022-12-16T07:36:06.554Z,79.20
2022-12-16T07:38:51.678Z,81.22
2022-12-16T07:41:36.938Z,81.25
2022-12-16T07:44:23.328Z,79.82
2022-12-16T07:47:08.831Z,77.85
2022-12-16T07:49:55.306Z,75.43
2022-12-16T07:52:41.649Z,64.43
2022-12-16T07:55:27.288Z,75.22
2022-12-16T07:58:12.858Z,74.60
2022-12-16T08:00:58.438Z,70.55
2022-12-16T08:03:43.588Z,75.30
2022-12-16T08:06:28.922Z,76.25
2022-12-16T08:09:14.464Z,80.00
2022-12-16T08:12:04.198Z,70.60
2022-12-16T08:14:49.488Z,68.55
2022-12-16T08:17:35.241Z,75.43
2022-12-16T08:20:20.351Z,82.60
2022-12-16T08:23:05.955Z,79.32
2022-12-16T08:25:51.399Z,74.65
2022-12-16T08:28:36.578Z,80.65
2022-12-16T08:31:22.026Z,76.85
2022-12-16T08:34:07.529Z,72.20
2022-12-16T08:36:53.175Z,73.07
2022-12-16T08:39:39.220Z,85.60
2022-12-16T08:42:24.775Z,70.45
2022-12-16T08:45:10.242Z,86.35
2022-12-16T08:47:55.603Z,80.07
2022-12-16T08:50:41.393Z,81.05
2022-12-16T08:53:26.356Z,70.30
2022-12-16T08:56:11.653Z,72.15
2022-12-16T08:58:56.995Z,75.63
2022-12-16T09:01:42.465Z,74.57
2022-12-16T09:04:27.976Z,76.22
2022-12-16T09:07:13.369Z,71.15
2022-12-16T09:09:59.016Z,77.15
2022-12-16T09:12:44.451Z,71.55
2022-12-16T09:15:29.649Z,82.10
2022-12-16T09:18:15.359Z,82.40
2022-12-16T09:21:00.883Z,75.70
2022-12-16T09:23:46.476Z,72.35
2022-12-16T09:26:31.850Z,78.57
2022-12-16T09:29:17.542Z,74.13
2022-12-16T09:32:02.830Z,87.50
2022-12-16T09:34:48.140Z,79.60
2022-12-16T09:37:33.731Z,80.50
2022-12-16T09:40:19.123Z,75.45
2022-12-16T09:43:17.418Z,78.03
2022-12-16T09:46:04.358Z,76.53
2022-12-16T09:49:29.945Z,71.72
2022-12-16T09:52:18.496Z,76.05
2022-12-16T09:55:05.824Z,73.88
2022-12-16T09:57:54.108Z,76.70
2022-12-16T10:00:46.382Z,73.85
2022-12-16T10:03:39.992Z,84.72
2022-12-16T10:06:54.716Z,72.90
2022-12-16T10:09:48.366Z,79.18
2022-12-16T10:12:53.711Z,77.30
2022-12-16T10:15:54.582Z,79.43
2022-12-16T10:19:07.508Z,83.03
2022-12-16T10:22:06.209Z,79.00
2022-12-16T10:25:04.972Z,89.00
2022-12-16T10:28:05.817Z,73.43
2022-12-16T10:30:53.332Z,85.53
2022-12-16T10:33:40.040Z,75.00
2022-12-16T10:36:32.551Z,84.47
2022-12-16T10:39:28.783Z,84.07
2022-12-16T10:42:18.718Z,82.60
2022-12-16T10:45:18.383Z,77.20
2022-12-16T10:48:03.900Z,85.07
2022-12-16T10:50:49.023Z,81.80
2022-12-16T10:53:37.725Z,77.90
2022-12-16T10:57:01.492Z,78.25
2022-12-16T10:59:55.738Z,82.18
2022-12-16T11:02:44.431Z,73.53
2022-12-16T11:05:44.990Z,86.05
2022-12-16T11:08:49.483Z,78.20
2022-12-16T11:11:47.925Z,73.43
2022-12-16T11:14:59.560Z,74.30
2022-12-16T11:17:47.310Z,84.37
2022-12-16T11:20:34.614Z,76.78
2022-12-16T11:23:40.854Z,70.85
2022-12-16T11:26:39.825Z,81.97
2022-12-16T11:29:35.269Z,78.57
2022-12-16T11:32:22.961Z,88.60
2022-12-16T11:35:12.777Z,81.68
2022-12-16T11:38:00.472Z,89.40
2022-12-16T11:40:48.818Z,83.90
2022-12-16T11:43:36.409Z,79.85
2022-12-16T11:46:28.161Z,72.65
2022-12-16T11:49:25.197Z,75.55
2022-12-16T11:52:38.961Z,78.22
2022-12-16T11:56:03.375Z,78.43
2022-12-16T11:58:57.282Z,77.72
2022-12-16T12:02:04.174Z,88.20
2022-12-16T12:04:49.429Z,98.88
2022-12-16T12:07:56.890Z,90.75
2022-12-16T12:10:49.824Z,83.75
2022-12-16T12:14:08.774Z,82.72
2022-12-16T12:17:16.280Z,79.78
2022-12-16T12:20:06.966Z,79.35
2022-12-16T12:22:57.562Z,82.55
2022-12-16T12:25:48.523Z,85.03
2022-12-16T12:28:39.661Z,98.53
2022-12-16T12:32:09.059Z,92.00
2022-12-16T12:35:22.455Z,88.97
2022-12-16T12:38:10.401Z,82.40
2022-12-16T12:41:16.619Z,97.82
2022-12-16T12:44:10.624Z,93.32
2022-12-16T12:47:06.963Z,103.75
2022-12-16T12:50:07.170Z,89.78
2022-12-16T12:53:18.934Z,91.25
2022-12-16T12:56:18.497Z,95.18
2022-12-16T12:59:04.995Z,100.13
2022-12-16T13:01:53.733Z,97.00
2022-12-16T13:04:40.950Z,96.15
2022-12-16T13:07:27.113Z,96.57
2022-12-16T13:10:32.676Z,103.03
2022-12-16T13:13:36.578Z,101.32
2022-12-16T13:16:23.935Z,107.10
2022-12-16T13:19:48.085Z,124.63
2022-12-16T13:22:50.121Z,112.13
2022-12-16T13:28:47.045Z,100.28
2022-12-16T13:31:33.309Z,112.82
2022-12-16T13:34:43.805Z,100.70
2022-12-16T13:37:43.165Z,103.40
2022-12-16T13:40:42.679Z,103.75
2022-12-16T13:44:00.156Z,115.15
2022-12-16T13:47:06.171Z,99.25
2022-12-16T13:49:54.325Z,99.45
2022-12-16T13:52:48.791Z,106.18
2022-12-16T13:55:39.418Z,98.65
2022-12-16T13:58:39.026Z,93.25
2022-12-16T14:01:35.654Z,99.75
2022-12-16T14:04:21.633Z,98.75
2022-12-16T14:07:08.484Z,98.35
2022-12-16T14:10:01.023Z,106.10
2022-12-16T14:13:02.105Z,100.47
2022-12-16T14:15:55.924Z,111.57
2022-12-16T14:19:15.896Z,110.15
2022-12-16T14:22:08.436Z,103.03
2022-12-16T14:24:56.999Z,107.70
2022-12-16T14:27:43.358Z,102.43
2022-12-16T14:30:35.007Z,97.43
2022-12-16T14:33:44.400Z,97.93
2022-12-16T14:36:44.988Z,96.65
2022-12-16T14:39:41.459Z,93.97
2022-12-16T14:42:37.828Z,93.05
2022-12-16T14:45:38.440Z,86.82
2022-12-16T14:48:49.794Z,88.40
2022-12-16T14:51:55.301Z,82.03
2022-12-16T14:54:55.357Z,90.85
2022-12-16T14:57:40.784Z,93.57
2022-12-16T15:00:26.469Z,90.97
2022-12-16T15:03:14.733Z,94.05
2022-12-16T15:06:02.214Z,93.35
2022-12-16T15:08:51.679Z,89.72
2022-12-16T15:11:39.778Z,92.35
2022-12-16T15:14:28.036Z,92.65
2022-12-16T15:17:14.083Z,78.68
2022-12-16T15:20:08.140Z,95.85
2022-12-16T15:22:54.055Z,93.18
2022-12-16T15:25:45.080Z,94.28
2022-12-16T15:28:45.775Z,98.17
2022-12-16T15:31:45.246Z,105.93
2022-12-16T15:35:07.322Z,93.32
2022-12-16T15:38:03.916Z,90.50
2022-12-16T15:40:52.042Z,102.50
2022-12-16T15:43:57.325Z,102.78
2022-12-16T15:46:45.739Z,102.70
2022-12-16T15:49:57.944Z,115.10
2022-12-16T15:52:52.560Z,98.55
2022-12-16T15:58:51.849Z,113.78
2022-12-16T16:01:43.602Z,108.75
2022-12-16T16:04:40.145Z,113.47
2022-12-16T16:07:38.788Z,104.38
2022-12-16T16:10:33.686Z,123.45
2022-12-16T16:13:19.167Z,113.07
2022-12-16T16:16:04.796Z,99.47
2022-12-16T16:18:50.436Z,106.00
2022-12-16T16:21:35.796Z,106.25
2022-12-16T16:24:21.468Z,105.85
2022-12-16T16:27:07.175Z,106.78
2022-12-16T16:29:52.510Z,98.35
2022-12-16T16:32:38.066Z,109.07
2022-12-16T16:35:23.654Z,115.40
2022-12-16T16:38:11.174Z,107.93
2022-12-16T16:41:01.606Z,122.07
2022-12-16T16:43:47.733Z,117.07
2022-12-16T16:46:38.891Z,128.63
2022-12-16T16:49:28.644Z,113.13
2022-12-16T16:52:14.299Z,115.50
2022-12-16T16:54:59.687Z,120.47
2022-12-16T16:57:50.721Z,111.45
2022-12-16T17:00:36.265Z,112.57
2022-12-16T17:03:22.161Z,118.43
2022-12-16T17:06:07.537Z,116.28
2022-12-16T17:08:53.117Z,111.78
2022-12-16T17:12:00.704Z,101.68
2022-12-16T17:14:46.043Z,99.35
2022-12-16T17:17:31.486Z,97.82
2022-12-16T17:20:16.976Z,90.00
2022-12-16T17:23:02.137Z,102.93
2022-12-16T17:25:47.634Z,99.55
2022-12-16T17:28:32.778Z,99.47
2022-12-16T17:31:18.296Z,104.63
2022-12-16T17:34:03.937Z,100.35
2022-12-16T17:36:49.352Z,90.18
2022-12-16T17:39:34.546Z,97.70
2022-12-16T17:42:19.852Z,92.55
2022-12-16T17:45:05.351Z,102.18
2022-12-16T17:47:50.901Z,95.25
2022-12-16T17:50:36.402Z,100.60
2022-12-16T17:53:21.622Z,105.75
2022-12-16T17:56:07.049Z,103.28
2022-12-16T17:58:54.917Z,104.68
2022-12-16T18:01:41.104Z,112.30
2022-12-16T18:04:27.044Z,101.60
2022-12-16T18:07:12.589Z,101.97
2022-12-16T18:09:58.154Z,98.63
2022-12-16T18:12:43.320Z,102.07
2022-12-16T18:15:45.448Z,100.03
2022-12-16T18:18:30.712Z,103.75
2022-12-16T18:21:16.096Z,97.25
2022-12-16T18:24:01.668Z,105.07
2022-12-16T18:26:46.987Z,108.20
2022-12-16T18:29:32.512Z,94.13
2022-12-16T18:32:17.688Z,95.90
2022-12-16T18:35:03.325Z,107.53
2022-12-16T18:37:48.319Z,95.72
2022-12-16T18:40:34.022Z,108.82
2022-12-16T18:43:19.483Z,114.68
2022-12-16T18:46:11.209Z,99.05
2022-12-16T18:51:42.571Z,98.85
2022-12-16T18:54:28.166Z,104.80
2022-12-16T18:57:13.307Z,100.82
2022-12-16T18:59:58.805Z,112.53
2022-12-16T19:02:44.808Z,107.63
2022-12-16T19:05:30.120Z,108.03
2022-12-16T19:08:15.534Z,106.03
2022-12-16T19:11:00.746Z,102.55
2022-12-16T19:13:46.268Z,96.57
2022-12-16T19:16:31.559Z,102.55
2022-12-16T19:19:20.224Z,107.18
2022-12-16T19:22:06.500Z,104.00
2022-12-16T19:24:51.888Z,99.88
2022-12-16T19:27:37.270Z,104.20
2022-12-16T19:30:23.203Z,98.00
2022-12-16T19:33:08.666Z,93.82
2022-12-16T19:35:54.635Z,103.85
2022-12-16T19:38:42.320Z,98.65
2022-12-16T19:41:35.652Z,103.47
2022-12-16T19:44:22.172Z,85.97
2022-12-16T19:47:08.049Z,96.68
2022-12-16T19:49:54.789Z,100.25
2022-12-16T19:52:59.701Z,92.05
2022-12-16T19:55:45.214Z,88.85
2022-12-16T19:58:30.624Z,93.65
2022-12-16T20:01:16.169Z,94.97
2022-12-16T20:04:01.444Z,97.32
2022-12-16T20:06:46.869Z,94.22
2022-12-16T20:09:32.227Z,92.57
2022-12-16T20:12:17.629Z,100.57
2022-12-16T20:15:03.411Z,91.40
2022-12-16T20:17:48.830Z,106.90
2022-12-16T20:20:33.852Z,95.55
2022-12-16T20:23:26.872Z,85.03
2022-12-16T20:26:17.550Z,94.95
2022-12-16T20:29:03.091Z,90.30
2022-12-16T20:31:48.796Z,92.50
2022-12-16T20:34:34.505Z,90.82
2022-12-16T20:37:19.676Z,92.32
2022-12-16T20:40:04.921Z,96.40
2022-12-16T20:42:50.186Z,87.35
2022-12-16T20:45:36.761Z,91.70
2022-12-16T20:48:22.756Z,94.85
2022-12-16T20:51:13.266Z,92.40
2022-12-16T20:53:58.335Z,102.70
2022-12-16T20:56:43.788Z,104.65
2022-12-16T20:59:29.255Z,93.85
2022-12-16T21:02:23.218Z,98.10
2022-12-16T21:05:10.651Z,93.28
2022-12-16T21:07:56.885Z,91.47
2022-12-16T21:10:42.247Z,93.72
2022-12-16T21:13:30.242Z,86.22
2022-12-16T21:16:16.515Z,88.60
2022-12-16T21:19:01.797Z,93.20
2022-12-16T21:21:46.967Z,95.55
2022-12-16T21:24:32.434Z,92.72
2022-12-16T21:27:18.003Z,99.30
2022-12-16T21:30:03.432Z,93.82
2022-12-16T21:32:49.067Z,95.80
2022-12-16T21:35:34.311Z,90.63
2022-12-16T21:38:19.745Z,89.78
2022-12-16T21:41:10.877Z,96.80
2022-12-16T21:43:56.052Z,84.40
2022-12-16T21:46:42.231Z,98.95
2022-12-16T21:49:27.420Z,113.53
2022-12-16T21:52:12.878Z,101.65
2022-12-16T21:54:58.379Z,90.50
2022-12-16T21:57:43.918Z,90.72
2022-12-16T22:00:30.056Z,91.75
2022-12-16T22:03:15.496Z,84.22
2022-12-16T22:06:01.962Z,92.70
2022-12-16T22:08:47.479Z,91.18
2022-12-16T22:11:33.309Z,81.45
2022-12-16T22:14:18.829Z,88.93
2022-12-16T22:17:05.972Z,97.65
2022-12-16T22:19:51.543Z,89.13
2022-12-16T22:22:37.105Z,89.25
2022-12-16T22:25:22.879Z,86.55
2022-12-16T22:28:08.358Z,90.35
2022-12-16T22:30:56.347Z,87.43
2022-12-16T22:33:41.663Z,90.65
2022-12-16T22:36:28.679Z,84.15
2022-12-16T22:39:14.306Z,85.40
2022-12-16T22:41:59.432Z,83.32
2022-12-16T22:44:45.054Z,83.97
2022-12-16T22:47:30.247Z,85.93
2022-12-16T22:50:15.343Z,83.07
2022-12-16T22:53:00.771Z,82.15
2022-12-16T22:55:45.846Z,82.13
2022-12-16T22:58:31.404Z,73.03
2022-12-16T23:01:16.535Z,77.97
2022-12-16T23:04:01.988Z,82.05
2022-12-16T23:06:47.200Z,78.10
2022-12-16T23:09:32.391Z,74.32
2022-12-16T23:12:17.926Z,75.85
2022-12-16T23:15:03.356Z,83.38
2022-12-16T23:17:48.707Z,81.03
2022-12-16T23:20:34.084Z,78.05
2022-12-16T23:23:19.610Z,79.47
2022-12-16T23:26:15.286Z,83.97
2022-12-16T23:29:00.773Z,76.32
2022-12-16T23:31:46.352Z,78.60
2022-12-16T23:34:32.358Z,74.38
2022-12-16T23:37:17.534Z,75.30
2022-12-16T23:40:03.087Z,77.05
2022-12-16T23:42:48.609Z,73.93
2022-12-16T23:45:33.955Z,78.28
2022-12-16T23:48:25.121Z,80.43
2022-12-16T23:51:10.513Z,80.03
2022-12-16T23:53:56.660Z,70.78
2022-12-16T23:56:42.673Z,75.82
2022-12-16T23:59:28.155Z,71.18
